sensor_id;sensor_type;location;lat;lon;timestamp;temperature;humidity
51837;DHT22;38941;53.254;6.600;2022-12-05T00:03:24;4.50;99.90
51837;DHT22;38941;53.254;6.600;2022-12-05T00:05:26;4.50;99.90
51837;DHT22;38941;53.254;6.600;2022-12-05T00:07:27;4.50;99.90
51837;DHT22;38941;53.254;6.600;2022-12-05T00:09:28;4.50;99.90
51837;DHT22;38941;53.254;6.600;2022-12-05T00:11:31;4.50;99.90
51837;DHT22;38941;53.254;6.600;2022-12-05T00:13:32;4.50;99.90
51837;DHT22;38941;53.254;6.600;2022-12-05T00:15:37;4.60;99.90
51837;DHT22;38941;53.254;6.600;2022-12-05T00:17:39;4.60;99.90
51837;DHT22;38941;53.254;6.600;2022-12-05T00:19:40;5.10;99.90
51837;DHT22;38941;53.254;6.600;2022-12-05T00:21:41;4.60;99.90
51837;DHT22;38941;53.254;6.600;2022-12-05T00:23:43;4.60;99.90
51837;DHT22;38941;53.254;6.600;2022-12-05T00:25:47;4.60;99.90
51837;DHT22;38941;53.254;6.600;2022-12-05T00:27:48;4.80;99.90
51837;DHT22;38941;53.254;6.600;2022-12-05T00:29:48;4.90;99.90
51837;DHT22;38941;53.254;6.600;2022-12-05T00:31:49;4.60;99.90
51837;DHT22;38941;53.254;6.600;2022-12-05T00:33:51;4.60;99.90
51837;DHT22;38941;53.254;6.600;2022-12-05T00:35:52;4.60;99.90
51837;DHT22;38941;53.254;6.600;2022-12-05T00:37:53;4.60;99.90
51837;DHT22;38941;53.254;6.600;2022-12-05T00:39:54;4.70;99.90
51837;DHT22;38941;53.254;6.600;2022-12-05T00:41:55;4.60;99.90
51837;DHT22;38941;53.254;6.600;2022-12-05T00:43:58;4.70;99.90
51837;DHT22;38941;53.254;6.600;2022-12-05T00:46:03;4.70;99.90
51837;DHT22;38941;53.254;6.600;2022-12-05T00:48:04;4.70;99.90
51837;DHT22;38941;53.254;6.600;2022-12-05T00:50:06;4.70;99.90
51837;DHT22;38941;53.254;6.600;2022-12-05T00:52:07;4.70;99.90
51837;DHT22;38941;53.254;6.600;2022-12-05T00:54:11;4.70;99.90
51837;DHT22;38941;53.254;6.600;2022-12-05T00:56:15;3.60;99.90
51837;DHT22;38941;53.254;6.600;2022-12-05T00:58:16;4.70;99.90
51837;DHT22;38941;53.254;6.600;2022-12-05T01:00:17;4.70;99.90
51837;DHT22;38941;53.254;6.600;2022-12-05T01:02:18;4.30;99.90
51837;DHT22;38941;53.254;6.600;2022-12-05T01:04:22;4.80;99.90
51837;DHT22;38941;53.254;6.600;2022-12-05T01:06:25;4.80;99.90
51837;DHT22;38941;53.254;6.600;2022-12-05T01:08:27;4.10;99.90
51837;DHT22;38941;53.254;6.600;2022-12-05T01:10:28;4.80;99.90
51837;DHT22;38941;53.254;6.600;2022-12-05T01:12:29;4.80;99.90
51837;DHT22;38941;53.254;6.600;2022-12-05T01:14:31;4.90;99.90
51837;DHT22;38941;53.254;6.600;2022-12-05T01:16:35;4.90;99.90
51837;DHT22;38941;53.254;6.600;2022-12-05T01:18:36;4.90;99.90
51837;DHT22;38941;53.254;6.600;2022-12-05T01:20:41;4.90;99.90
51837;DHT22;38941;53.254;6.600;2022-12-05T01:22:43;4.90;99.90
51837;DHT22;38941;53.254;6.600;2022-12-05T01:24:44;4.90;99.90
51837;DHT22;38941;53.254;6.600;2022-12-05T01:26:46;5.00;99.90
51837;DHT22;38941;53.254;6.600;2022-12-05T01:28:48;5.00;99.90
51837;DHT22;38941;53.254;6.600;2022-12-05T01:30:49;5.00;99.90
51837;DHT22;38941;53.254;6.600;2022-12-05T01:32:50;5.00;99.90
51837;DHT22;38941;53.254;6.600;2022-12-05T01:34:53;5.00;99.90
51837;DHT22;38941;53.254;6.600;2022-12-05T01:36:54;5.10;99.90
51837;DHT22;38941;53.254;6.600;2022-12-05T01:38:55;5.00;99.90
51837;DHT22;38941;53.254;6.600;2022-12-05T01:41:04;5.00;99.90
51837;DHT22;38941;53.254;6.600;2022-12-05T01:43:13;5.10;99.90
51837;DHT22;38941;53.254;6.600;2022-12-05T01:45:18;5.20;99.90
51837;DHT22;38941;53.254;6.600;2022-12-05T01:47:24;5.10;99.90
51837;DHT22;38941;53.254;6.600;2022-12-05T01:49:35;5.10;99.90
51837;DHT22;38941;53.254;6.600;2022-12-05T01:51:39;5.20;99.90
51837;DHT22;38941;53.254;6.600;2022-12-05T01:53:40;5.10;99.90
51837;DHT22;38941;53.254;6.600;2022-12-05T01:55:41;5.10;99.90
51837;DHT22;38941;53.254;6.600;2022-12-05T01:57:44;5.10;99.90
51837;DHT22;38941;53.254;6.600;2022-12-05T01:59:51;5.10;99.90
51837;DHT22;38941;53.254;6.600;2022-12-05T02:01:52;5.10;99.90
51837;DHT22;38941;53.254;6.600;2022-12-05T02:03:56;5.10;99.90
51837;DHT22;38941;53.254;6.600;2022-12-05T02:05:59;5.10;99.90
51837;DHT22;38941;53.254;6.600;2022-12-05T02:08:02;5.10;99.90
51837;DHT22;38941;53.254;6.600;2022-12-05T02:10:05;5.10;99.90
51837;DHT22;38941;53.254;6.600;2022-12-05T02:12:06;5.10;99.90
51837;DHT22;38941;53.254;6.600;2022-12-05T02:14:23;5.10;99.90
51837;DHT22;38941;53.254;6.600;2022-12-05T02:16:54;5.10;99.90
51837;DHT22;38941;53.254;6.600;2022-12-05T02:31:46;5.10;99.90
51837;DHT22;38941;53.254;6.600;2022-12-05T02:34:27;5.10;99.90
51837;DHT22;38941;53.254;6.600;2022-12-05T02:38:39;5.10;99.90
51837;DHT22;38941;53.254;6.600;2022-12-05T02:43:02;5.10;99.90
51837;DHT22;38941;53.254;6.600;2022-12-05T02:45:08;5.20;99.90
51837;DHT22;38941;53.254;6.600;2022-12-05T02:47:11;5.10;99.90
51837;DHT22;38941;53.254;6.600;2022-12-05T02:49:18;5.10;99.90
51837;DHT22;38941;53.254;6.600;2022-12-05T02:51:22;5.10;99.90
51837;DHT22;38941;53.254;6.600;2022-12-05T02:53:25;5.10;99.90
51837;DHT22;38941;53.254;6.600;2022-12-05T02:55:27;5.80;99.90
51837;DHT22;38941;53.254;6.600;2022-12-05T02:57:31;5.10;99.90
51837;DHT22;38941;53.254;6.600;2022-12-05T02:59:32;5.10;99.90
51837;DHT22;38941;53.254;6.600;2022-12-05T03:01:33;5.10;99.90
51837;DHT22;38941;53.254;6.600;2022-12-05T03:03:34;5.40;99.90
51837;DHT22;38941;53.254;6.600;2022-12-05T03:05:46;5.10;99.90
51837;DHT22;38941;53.254;6.600;2022-12-05T03:07:51;5.10;99.90
51837;DHT22;38941;53.254;6.600;2022-12-05T03:09:58;5.10;99.90
51837;DHT22;38941;53.254;6.600;2022-12-05T03:14:05;5.10;99.90
51837;DHT22;38941;53.254;6.600;2022-12-05T03:16:11;5.10;99.90
51837;DHT22;38941;53.254;6.600;2022-12-05T03:18:42;5.10;99.90
51837;DHT22;38941;53.254;6.600;2022-12-05T03:20:49;5.10;99.90
51837;DHT22;38941;53.254;6.600;2022-12-05T03:22:53;5.10;99.90
51837;DHT22;38941;53.254;6.600;2022-12-05T03:24:57;5.10;99.90
51837;DHT22;38941;53.254;6.600;2022-12-05T03:32:07;5.10;99.90
51837;DHT22;38941;53.254;6.600;2022-12-05T03:34:16;5.10;99.90
51837;DHT22;38941;53.254;6.600;2022-12-05T03:36:22;5.10;99.90
51837;DHT22;38941;53.254;6.600;2022-12-05T03:38:31;5.10;99.90
51837;DHT22;38941;53.254;6.600;2022-12-05T03:43:23;5.10;99.90
51837;DHT22;38941;53.254;6.600;2022-12-05T03:45:32;5.10;99.90
51837;DHT22;38941;53.254;6.600;2022-12-05T03:49:43;5.10;99.90
51837;DHT22;38941;53.254;6.600;2022-12-05T03:51:52;5.10;99.90
51837;DHT22;38941;53.254;6.600;2022-12-05T03:53:56;5.10;99.90
51837;DHT22;38941;53.254;6.600;2022-12-05T03:56:03;5.10;99.90
51837;DHT22;38941;53.254;6.600;2022-12-05T03:58:09;5.10;99.90
51837;DHT22;38941;53.254;6.600;2022-12-05T04:00:16;5.10;99.90
51837;DHT22;38941;53.254;6.600;2022-12-05T04:02:30;5.10;99.90
51837;DHT22;38941;53.254;6.600;2022-12-05T04:04:38;5.10;99.90
51837;DHT22;38941;53.254;6.600;2022-12-05T04:06:46;5.10;99.90
51837;DHT22;38941;53.254;6.600;2022-12-05T04:08:53;5.60;99.90
51837;DHT22;38941;53.254;6.600;2022-12-05T04:11:03;5.10;99.90
51837;DHT22;38941;53.254;6.600;2022-12-05T04:13:06;5.30;99.90
51837;DHT22;38941;53.254;6.600;2022-12-05T04:15:21;5.10;99.90
51837;DHT22;38941;53.254;6.600;2022-12-05T04:17:29;5.50;99.90
51837;DHT22;38941;53.254;6.600;2022-12-05T04:19:38;5.10;99.90
51837;DHT22;38941;53.254;6.600;2022-12-05T04:21:58;5.10;99.90
51837;DHT22;38941;53.254;6.600;2022-12-05T04:23:59;5.20;99.90
51837;DHT22;38941;53.254;6.600;2022-12-05T04:26:27;5.80;99.90
51837;DHT22;38941;53.254;6.600;2022-12-05T04:28:38;5.10;99.90
51837;DHT22;38941;53.254;6.600;2022-12-05T04:33:22;5.10;99.90
51837;DHT22;38941;53.254;6.600;2022-12-05T04:35:52;5.10;99.90
51837;DHT22;38941;53.254;6.600;2022-12-05T04:37:54;5.80;99.90
51837;DHT22;38941;53.254;6.600;2022-12-05T04:40:03;5.80;99.90
51837;DHT22;38941;53.254;6.600;2022-12-05T04:42:09;5.10;99.90
51837;DHT22;38941;53.254;6.600;2022-12-05T04:44:13;5.10;99.90
51837;DHT22;38941;53.254;6.600;2022-12-05T04:46:18;5.10;99.90
51837;DHT22;38941;53.254;6.600;2022-12-05T04:48:20;5.10;99.90
51837;DHT22;38941;53.254;6.600;2022-12-05T04:50:23;5.10;99.90
51837;DHT22;38941;53.254;6.600;2022-12-05T04:52:27;5.10;99.90
51837;DHT22;38941;53.254;6.600;2022-12-05T04:54:53;5.20;99.90
51837;DHT22;38941;53.254;6.600;2022-12-05T04:56:54;5.20;99.90
51837;DHT22;38941;53.254;6.600;2022-12-05T04:58:56;5.10;99.90
51837;DHT22;38941;53.254;6.600;2022-12-05T05:03:15;5.10;99.90
51837;DHT22;38941;53.254;6.600;2022-12-05T05:05:18;5.20;99.90
51837;DHT22;38941;53.254;6.600;2022-12-05T05:07:20;5.20;99.90
51837;DHT22;38941;53.254;6.600;2022-12-05T05:09:20;5.10;99.90
51837;DHT22;38941;53.254;6.600;2022-12-05T05:11:24;5.20;99.90
51837;DHT22;38941;53.254;6.600;2022-12-05T05:13:25;5.20;99.90
51837;DHT22;38941;53.254;6.600;2022-12-05T05:15:26;5.20;99.90
51837;DHT22;38941;53.254;6.600;2022-12-05T05:17:26;5.10;99.90
51837;DHT22;38941;53.254;6.600;2022-12-05T05:19:27;5.20;99.90
51837;DHT22;38941;53.254;6.600;2022-12-05T05:21:32;5.10;99.90
51837;DHT22;38941;53.254;6.600;2022-12-05T05:23:34;5.20;99.90
51837;DHT22;38941;53.254;6.600;2022-12-05T05:25:35;5.20;99.90
51837;DHT22;38941;53.254;6.600;2022-12-05T05:27:36;5.40;99.90
51837;DHT22;38941;53.254;6.600;2022-12-05T05:29:36;5.10;99.90
51837;DHT22;38941;53.254;6.600;2022-12-05T05:31:38;5.10;99.90
51837;DHT22;38941;53.254;6.600;2022-12-05T05:33:39;5.10;99.90
51837;DHT22;38941;53.254;6.600;2022-12-05T05:35:40;5.20;99.90
51837;DHT22;38941;53.254;6.600;2022-12-05T05:37:41;5.20;99.90
51837;DHT22;38941;53.254;6.600;2022-12-05T05:39:42;5.10;99.90
51837;DHT22;38941;53.254;6.600;2022-12-05T05:41:43;5.10;99.90
51837;DHT22;38941;53.254;6.600;2022-12-05T05:43:44;5.10;99.90
51837;DHT22;38941;53.254;6.600;2022-12-05T05:45:45;5.20;99.90
51837;DHT22;38941;53.254;6.600;2022-12-05T05:47:49;5.10;99.90
51837;DHT22;38941;53.254;6.600;2022-12-05T05:49:51;5.40;99.90
51837;DHT22;38941;53.254;6.600;2022-12-05T05:51:51;5.10;99.90
51837;DHT22;38941;53.254;6.600;2022-12-05T05:53:52;5.20;99.90
51837;DHT22;38941;53.254;6.600;2022-12-05T05:55:53;5.20;99.90
51837;DHT22;38941;53.254;6.600;2022-12-05T05:57:55;4.90;99.90
51837;DHT22;38941;53.254;6.600;2022-12-05T05:59:58;5.20;99.90
51837;DHT22;38941;53.254;6.600;2022-12-05T06:01:59;5.50;99.90
51837;DHT22;38941;53.254;6.600;2022-12-05T06:04:00;5.20;99.90
51837;DHT22;38941;53.254;6.600;2022-12-05T06:06:04;5.20;99.90
51837;DHT22;38941;53.254;6.600;2022-12-05T06:08:05;5.20;99.90
51837;DHT22;38941;53.254;6.600;2022-12-05T06:10:06;5.20;99.90
51837;DHT22;38941;53.254;6.600;2022-12-05T06:12:08;5.20;99.90
51837;DHT22;38941;53.254;6.600;2022-12-05T06:14:09;5.20;99.90
51837;DHT22;38941;53.254;6.600;2022-12-05T06:16:11;5.20;99.90
51837;DHT22;38941;53.254;6.600;2022-12-05T06:18:14;5.20;99.90
51837;DHT22;38941;53.254;6.600;2022-12-05T06:20:15;5.20;99.90
51837;DHT22;38941;53.254;6.600;2022-12-05T06:22:16;5.60;99.90
51837;DHT22;38941;53.254;6.600;2022-12-05T06:24:17;5.20;99.90
51837;DHT22;38941;53.254;6.600;2022-12-05T06:26:20;5.20;99.90
51837;DHT22;38941;53.254;6.600;2022-12-05T06:28:23;5.20;99.90
51837;DHT22;38941;53.254;6.600;2022-12-05T06:30:24;5.20;99.90
51837;DHT22;38941;53.254;6.600;2022-12-05T06:32:26;5.20;99.90
51837;DHT22;38941;53.254;6.600;2022-12-05T06:34:27;5.20;99.90
51837;DHT22;38941;53.254;6.600;2022-12-05T06:36:29;5.20;99.90
51837;DHT22;38941;53.254;6.600;2022-12-05T06:38:30;5.20;99.90
51837;DHT22;38941;53.254;6.600;2022-12-05T06:40:31;5.20;99.90
51837;DHT22;38941;53.254;6.600;2022-12-05T06:42:32;5.20;99.90
51837;DHT22;38941;53.254;6.600;2022-12-05T06:44:32;5.20;99.90
51837;DHT22;38941;53.254;6.600;2022-12-05T06:46:33;5.20;99.90
51837;DHT22;38941;53.254;6.600;2022-12-05T06:48:34;5.20;99.90
51837;DHT22;38941;53.254;6.600;2022-12-05T06:50:35;5.20;99.90
51837;DHT22;38941;53.254;6.600;2022-12-05T06:52:36;5.20;99.90
51837;DHT22;38941;53.254;6.600;2022-12-05T06:54:37;5.20;99.90
51837;DHT22;38941;53.254;6.600;2022-12-05T06:56:37;5.20;99.90
51837;DHT22;38941;53.254;6.600;2022-12-05T07:00:41;5.20;99.90
51837;DHT22;38941;53.254;6.600;2022-12-05T07:03:00;5.30;99.90
51837;DHT22;38941;53.254;6.600;2022-12-05T07:05:01;5.20;99.90
51837;DHT22;38941;53.254;6.600;2022-12-05T07:07:04;5.20;99.90
51837;DHT22;38941;53.254;6.600;2022-12-05T07:09:05;5.10;99.90
51837;DHT22;38941;53.254;6.600;2022-12-05T07:11:06;5.20;99.90
51837;DHT22;38941;53.254;6.600;2022-12-05T07:13:07;5.20;99.90
51837;DHT22;38941;53.254;6.600;2022-12-05T07:15:08;4.40;99.90
51837;DHT22;38941;53.254;6.600;2022-12-05T07:17:12;5.20;99.90
51837;DHT22;38941;53.254;6.600;2022-12-05T07:19:13;5.20;99.90
51837;DHT22;38941;53.254;6.600;2022-12-05T07:21:14;5.30;99.90
51837;DHT22;38941;53.254;6.600;2022-12-05T07:23:16;5.30;99.90
51837;DHT22;38941;53.254;6.600;2022-12-05T07:25:18;5.20;99.90
51837;DHT22;38941;53.254;6.600;2022-12-05T07:27:21;5.70;99.90
51837;DHT22;38941;53.254;6.600;2022-12-05T07:29:22;4.30;99.90
51837;DHT22;38941;53.254;6.600;2022-12-05T07:31:24;5.30;99.90
51837;DHT22;38941;53.254;6.600;2022-12-05T07:33:25;5.20;99.90
51837;DHT22;38941;53.254;6.600;2022-12-05T07:35:27;5.30;99.90
51837;DHT22;38941;53.254;6.600;2022-12-05T07:37:29;5.30;99.90
51837;DHT22;38941;53.254;6.600;2022-12-05T07:39:30;5.30;99.90
51837;DHT22;38941;53.254;6.600;2022-12-05T07:41:32;5.30;99.90
51837;DHT22;38941;53.254;6.600;2022-12-05T07:43:32;5.30;99.90
51837;DHT22;38941;53.254;6.600;2022-12-05T07:45:34;5.40;99.90
51837;DHT22;38941;53.254;6.600;2022-12-05T07:47:35;5.30;99.90
51837;DHT22;38941;53.254;6.600;2022-12-05T07:49:36;5.40;99.90
51837;DHT22;38941;53.254;6.600;2022-12-05T07:51:36;5.30;99.90
51837;DHT22;38941;53.254;6.600;2022-12-05T07:53:39;5.40;99.90
51837;DHT22;38941;53.254;6.600;2022-12-05T07:55:43;5.40;99.90
51837;DHT22;38941;53.254;6.600;2022-12-05T07:57:45;4.30;99.90
51837;DHT22;38941;53.254;6.600;2022-12-05T07:59:48;5.40;99.90
51837;DHT22;38941;53.254;6.600;2022-12-05T08:01:49;5.40;99.90
51837;DHT22;38941;53.254;6.600;2022-12-05T08:03:55;5.40;99.90
51837;DHT22;38941;53.254;6.600;2022-12-05T08:06:01;5.40;99.90
51837;DHT22;38941;53.254;6.600;2022-12-05T08:08:01;5.40;99.90
51837;DHT22;38941;53.254;6.600;2022-12-05T08:10:04;4.40;99.90
51837;DHT22;38941;53.254;6.600;2022-12-05T08:12:06;5.40;99.90
51837;DHT22;38941;53.254;6.600;2022-12-05T08:14:09;5.40;99.90
51837;DHT22;38941;53.254;6.600;2022-12-05T08:16:16;5.40;99.90
51837;DHT22;38941;53.254;6.600;2022-12-05T08:18:17;5.40;99.90
51837;DHT22;38941;53.254;6.600;2022-12-05T08:20:18;5.40;99.90
51837;DHT22;38941;53.254;6.600;2022-12-05T08:25:09;4.70;99.90
51837;DHT22;38941;53.254;6.600;2022-12-05T08:27:09;5.40;99.90
51837;DHT22;38941;53.254;6.600;2022-12-05T08:29:12;5.40;99.90
51837;DHT22;38941;53.254;6.600;2022-12-05T08:31:16;5.40;99.90
51837;DHT22;38941;53.254;6.600;2022-12-05T08:33:17;5.40;99.90
51837;DHT22;38941;53.254;6.600;2022-12-05T08:35:19;5.20;99.90
51837;DHT22;38941;53.254;6.600;2022-12-05T08:37:21;5.40;99.90
51837;DHT22;38941;53.254;6.600;2022-12-05T08:39:22;5.40;99.90
51837;DHT22;38941;53.254;6.600;2022-12-05T08:41:22;5.40;99.90
51837;DHT22;38941;53.254;6.600;2022-12-05T08:43:28;4.20;99.90
51837;DHT22;38941;53.254;6.600;2022-12-05T08:45:29;5.40;99.90
51837;DHT22;38941;53.254;6.600;2022-12-05T08:47:30;5.40;99.90
51837;DHT22;38941;53.254;6.600;2022-12-05T08:49:31;4.40;99.90
51837;DHT22;38941;53.254;6.600;2022-12-05T08:51:32;5.40;99.90
51837;DHT22;38941;53.254;6.600;2022-12-05T08:53:34;5.40;99.90
51837;DHT22;38941;53.254;6.600;2022-12-05T08:55:35;5.40;99.90
51837;DHT22;38941;53.254;6.600;2022-12-05T08:57:36;5.40;99.90
51837;DHT22;38941;53.254;6.600;2022-12-05T08:59:36;5.40;99.90
51837;DHT22;38941;53.254;6.600;2022-12-05T09:01:37;5.40;99.90
51837;DHT22;38941;53.254;6.600;2022-12-05T09:03:39;5.40;99.90
51837;DHT22;38941;53.254;6.600;2022-12-05T09:05:40;5.40;99.90
51837;DHT22;38941;53.254;6.600;2022-12-05T09:07:42;5.40;99.90
51837;DHT22;38941;53.254;6.600;2022-12-05T09:09:43;5.40;99.90
51837;DHT22;38941;53.254;6.600;2022-12-05T09:11:44;5.40;99.90
51837;DHT22;38941;53.254;6.600;2022-12-05T09:13:51;5.40;99.90
51837;DHT22;38941;53.254;6.600;2022-12-05T09:15:52;5.50;99.90
51837;DHT22;38941;53.254;6.600;2022-12-05T09:17:53;5.50;99.90
51837;DHT22;38941;53.254;6.600;2022-12-05T09:19:53;5.40;99.90
51837;DHT22;38941;53.254;6.600;2022-12-05T09:21:55;5.50;99.90
51837;DHT22;38941;53.254;6.600;2022-12-05T09:23:58;5.50;99.90
51837;DHT22;38941;53.254;6.600;2022-12-05T09:25:59;5.40;99.90
51837;DHT22;38941;53.254;6.600;2022-12-05T09:28:02;5.50;99.90
51837;DHT22;38941;53.254;6.600;2022-12-05T09:30:04;5.50;99.90
51837;DHT22;38941;53.254;6.600;2022-12-05T09:32:06;5.50;99.90
51837;DHT22;38941;53.254;6.600;2022-12-05T09:34:08;5.40;99.90
51837;DHT22;38941;53.254;6.600;2022-12-05T09:36:24;5.30;99.90
51837;DHT22;38941;53.254;6.600;2022-12-05T09:38:25;5.50;99.90
51837;DHT22;38941;53.254;6.600;2022-12-05T09:40:26;5.60;99.90
51837;DHT22;38941;53.254;6.600;2022-12-05T09:42:36;5.50;99.90
51837;DHT22;38941;53.254;6.600;2022-12-05T09:47:06;5.50;99.90
51837;DHT22;38941;53.254;6.600;2022-12-05T09:49:12;5.50;99.90
51837;DHT22;38941;53.254;6.600;2022-12-05T09:51:13;5.60;99.90
51837;DHT22;38941;53.254;6.600;2022-12-05T09:55:45;5.60;99.90
51837;DHT22;38941;53.254;6.600;2022-12-05T09:57:51;5.60;99.90
51837;DHT22;38941;53.254;6.600;2022-12-05T09:59:52;5.60;99.90
51837;DHT22;38941;53.254;6.600;2022-12-05T10:02:03;5.60;99.90
51837;DHT22;38941;53.254;6.600;2022-12-05T10:06:23;5.60;99.90
51837;DHT22;38941;53.254;6.600;2022-12-05T10:08:39;5.60;99.90
51837;DHT22;38941;53.254;6.600;2022-12-05T10:11:00;5.60;99.90
51837;DHT22;38941;53.254;6.600;2022-12-05T10:15:44;5.60;99.90
51837;DHT22;38941;53.254;6.600;2022-12-05T10:18:00;5.60;99.90
51837;DHT22;38941;53.254;6.600;2022-12-05T10:20:26;5.60;99.90
51837;DHT22;38941;53.254;6.600;2022-12-05T10:22:36;5.50;99.90
51837;DHT22;38941;53.254;6.600;2022-12-05T10:25:00;5.60;99.90
51837;DHT22;38941;53.254;6.600;2022-12-05T10:27:07;5.60;99.90
51837;DHT22;38941;53.254;6.600;2022-12-05T10:29:16;5.60;99.90
51837;DHT22;38941;53.254;6.600;2022-12-05T10:31:24;5.60;99.90
51837;DHT22;38941;53.254;6.600;2022-12-05T10:33:32;5.60;99.90
51837;DHT22;38941;53.254;6.600;2022-12-05T10:35:37;5.60;99.90
51837;DHT22;38941;53.254;6.600;2022-12-05T10:37:38;5.60;99.90
51837;DHT22;38941;53.254;6.600;2022-12-05T10:39:39;5.60;99.90
51837;DHT22;38941;53.254;6.600;2022-12-05T10:41:39;5.60;99.90
51837;DHT22;38941;53.254;6.600;2022-12-05T10:43:42;5.50;99.90
51837;DHT22;38941;53.254;6.600;2022-12-05T10:45:46;5.50;99.90
51837;DHT22;38941;53.254;6.600;2022-12-05T10:47:52;5.50;99.90
51837;DHT22;38941;53.254;6.600;2022-12-05T10:49:55;6.20;99.90
51837;DHT22;38941;53.254;6.600;2022-12-05T10:51:57;5.70;99.90
51837;DHT22;38941;53.254;6.600;2022-12-05T10:53:59;5.50;99.90
51837;DHT22;38941;53.254;6.600;2022-12-05T10:56:00;5.50;99.90
51837;DHT22;38941;53.254;6.600;2022-12-05T11:00:14;6.10;99.90
51837;DHT22;38941;53.254;6.600;2022-12-05T11:02:27;5.60;99.90
51837;DHT22;38941;53.254;6.600;2022-12-05T11:04:40;5.60;99.90
51837;DHT22;38941;53.254;6.600;2022-12-05T11:06:53;5.50;99.90
51837;DHT22;38941;53.254;6.600;2022-12-05T11:08:57;5.50;99.90
51837;DHT22;38941;53.254;6.600;2022-12-05T11:11:07;5.60;99.90
51837;DHT22;38941;53.254;6.600;2022-12-05T11:13:24;5.60;99.90
51837;DHT22;38941;53.254;6.600;2022-12-05T11:15:30;5.60;99.90
51837;DHT22;38941;53.254;6.600;2022-12-05T11:17:34;5.60;99.90
51837;DHT22;38941;53.254;6.600;2022-12-05T11:19:36;5.60;99.90
51837;DHT22;38941;53.254;6.600;2022-12-05T11:21:41;5.60;99.90
51837;DHT22;38941;53.254;6.600;2022-12-05T11:23:42;5.60;99.90
51837;DHT22;38941;53.254;6.600;2022-12-05T11:25:45;5.60;99.90
51837;DHT22;38941;53.254;6.600;2022-12-05T11:27:46;5.60;99.90
51837;DHT22;38941;53.254;6.600;2022-12-05T11:29:59;5.60;99.90
51837;DHT22;38941;53.254;6.600;2022-12-05T11:32:04;5.90;99.90
51837;DHT22;38941;53.254;6.600;2022-12-05T11:34:19;5.30;99.90
51837;DHT22;38941;53.254;6.600;2022-12-05T11:36:22;5.60;99.90
51837;DHT22;38941;53.254;6.600;2022-12-05T11:38:27;5.60;99.90
51837;DHT22;38941;53.254;6.600;2022-12-05T11:40:54;6.10;99.90
51837;DHT22;38941;53.254;6.600;2022-12-05T11:48:01;5.60;99.90
51837;DHT22;38941;53.254;6.600;2022-12-05T11:55:17;5.70;99.90
51837;DHT22;38941;53.254;6.600;2022-12-05T11:57:39;5.70;99.90
51837;DHT22;38941;53.254;6.600;2022-12-05T12:07:14;5.60;99.90
51837;DHT22;38941;53.254;6.600;2022-12-05T12:12:05;5.60;99.90
51837;DHT22;38941;53.254;6.600;2022-12-05T12:28:52;5.60;99.90
51837;DHT22;38941;53.254;6.600;2022-12-05T12:34:03;5.60;99.90
51837;DHT22;38941;53.254;6.600;2022-12-05T12:40:59;5.60;99.90
51837;DHT22;38941;53.254;6.600;2022-12-05T12:50:32;5.60;99.90
51837;DHT22;38941;53.254;6.600;2022-12-05T12:59:49;5.70;99.90
51837;DHT22;38941;53.254;6.600;2022-12-05T13:02:35;5.60;99.90
51837;DHT22;38941;53.254;6.600;2022-12-05T13:04:49;5.70;99.90
51837;DHT22;38941;53.254;6.600;2022-12-05T13:07:02;5.60;99.90
51837;DHT22;38941;53.254;6.600;2022-12-05T13:11:49;5.70;99.90
51837;DHT22;38941;53.254;6.600;2022-12-05T13:13:53;5.60;99.90
51837;DHT22;38941;53.254;6.600;2022-12-05T13:15:59;5.60;99.90
51837;DHT22;38941;53.254;6.600;2022-12-05T13:18:02;5.60;99.90
51837;DHT22;38941;53.254;6.600;2022-12-05T13:20:19;5.60;99.90
51837;DHT22;38941;53.254;6.600;2022-12-05T13:22:22;5.60;99.90
51837;DHT22;38941;53.254;6.600;2022-12-05T13:24:26;5.60;99.90
51837;DHT22;38941;53.254;6.600;2022-12-05T13:26:28;5.60;99.90
51837;DHT22;38941;53.254;6.600;2022-12-05T13:28:29;5.60;99.90
51837;DHT22;38941;53.254;6.600;2022-12-05T13:30:33;5.60;99.90
51837;DHT22;38941;53.254;6.600;2022-12-05T13:32:56;5.60;99.90
51837;DHT22;38941;53.254;6.600;2022-12-05T13:35:33;5.60;99.90
51837;DHT22;38941;53.254;6.600;2022-12-05T13:37:53;5.60;99.90
51837;DHT22;38941;53.254;6.600;2022-12-05T13:40:20;5.60;99.90
51837;DHT22;38941;53.254;6.600;2022-12-05T13:42:41;5.60;99.90
51837;DHT22;38941;53.254;6.600;2022-12-05T13:44:43;5.60;99.90
51837;DHT22;38941;53.254;6.600;2022-12-05T13:46:48;5.60;99.90
51837;DHT22;38941;53.254;6.600;2022-12-05T13:49:01;5.60;99.90
51837;DHT22;38941;53.254;6.600;2022-12-05T13:51:28;5.60;99.90
51837;DHT22;38941;53.254;6.600;2022-12-05T13:55:34;5.60;99.90
51837;DHT22;38941;53.254;6.600;2022-12-05T14:00:00;5.60;99.90
51837;DHT22;38941;53.254;6.600;2022-12-05T14:04:49;5.60;99.90
51837;DHT22;38941;53.254;6.600;2022-12-05T14:08:52;5.60;99.90
51837;DHT22;38941;53.254;6.600;2022-12-05T14:12:59;4.60;99.90
51837;DHT22;38941;53.254;6.600;2022-12-05T14:15:00;5.60;99.90
51837;DHT22;38941;53.254;6.600;2022-12-05T14:17:02;5.70;99.90
51837;DHT22;38941;53.254;6.600;2022-12-05T14:19:24;5.60;99.90
51837;DHT22;38941;53.254;6.600;2022-12-05T14:29:12;5.60;99.90
51837;DHT22;38941;53.254;6.600;2022-12-05T14:33:21;5.60;99.90
51837;DHT22;38941;53.254;6.600;2022-12-05T14:35:44;5.50;99.90
51837;DHT22;38941;53.254;6.600;2022-12-05T14:37:57;5.60;99.90
51837;DHT22;38941;53.254;6.600;2022-12-05T14:40:01;5.50;99.90
51837;DHT22;38941;53.254;6.600;2022-12-05T14:42:24;5.50;99.90
51837;DHT22;38941;53.254;6.600;2022-12-05T14:44:27;5.50;99.90
51837;DHT22;38941;53.254;6.600;2022-12-05T14:46:32;5.60;99.90
51837;DHT22;38941;53.254;6.600;2022-12-05T14:48:34;5.40;99.90
51837;DHT22;38941;53.254;6.600;2022-12-05T14:52:39;5.50;99.90
51837;DHT22;38941;53.254;6.600;2022-12-05T14:54:40;5.50;99.90
51837;DHT22;38941;53.254;6.600;2022-12-05T14:56:58;5.40;99.90
51837;DHT22;38941;53.254;6.600;2022-12-05T14:59:04;5.50;99.90
51837;DHT22;38941;53.254;6.600;2022-12-05T15:01:30;5.40;99.90
51837;DHT22;38941;53.254;6.600;2022-12-05T15:03:37;5.50;99.90
51837;DHT22;38941;53.254;6.600;2022-12-05T15:05:42;5.50;99.90
51837;DHT22;38941;53.254;6.600;2022-12-05T15:07:44;5.50;99.90
51837;DHT22;38941;53.254;6.600;2022-12-05T15:10:07;5.50;99.90
51837;DHT22;38941;53.254;6.600;2022-12-05T15:12:22;5.30;99.90
51837;DHT22;38941;53.254;6.600;2022-12-05T15:14:28;5.40;99.90
51837;DHT22;38941;53.254;6.600;2022-12-05T15:16:33;5.50;99.90
51837;DHT22;38941;53.254;6.600;2022-12-05T15:18:52;5.50;99.90
51837;DHT22;38941;53.254;6.600;2022-12-05T15:20:58;5.50;99.90
51837;DHT22;38941;53.254;6.600;2022-12-05T15:23:01;5.50;99.90
51837;DHT22;38941;53.254;6.600;2022-12-05T15:25:34;5.40;99.90
51837;DHT22;38941;53.254;6.600;2022-12-05T15:27:35;5.50;99.90
51837;DHT22;38941;53.254;6.600;2022-12-05T15:29:36;5.40;99.90
51837;DHT22;38941;53.254;6.600;2022-12-05T15:33:55;5.50;99.90
51837;DHT22;38941;53.254;6.600;2022-12-05T15:35:58;5.50;99.90
51837;DHT22;38941;53.254;6.600;2022-12-05T15:38:10;5.60;99.90
51837;DHT22;38941;53.254;6.600;2022-12-05T15:40:15;5.40;99.90
51837;DHT22;38941;53.254;6.600;2022-12-05T15:42:17;5.50;99.90